Time;durP1;ratioP1;P1;durP2;ratioP2;P2;SDS_P1;SDS_P2;PMS_P1;PMS_P2;Temp;Humidity;BMP_temperature;BMP_pressure;BME280_temperature;BME280_humidity;BME280_pressure;Samples;Min_cycle;Max_cycle;Signal;HPM_P1;HPM_P2
2023/06/08 00:00:51;;;;;;;6.07;4.00;;;;;;;16.71;67.34;101760.09;5035220;28;20022;-96
2023/06/08 00:03:26;;;;;;;5.70;4.07;;;;;;;16.69;67.63;101754.81;5042296;28;20035;-96
2023/06/08 00:05:52;;;;;;;6.43;4.10;;;;;;;16.64;67.95;101757.38;5035414;28;20041;-96
2023/06/08 00:08:20;;;;;;;6.55;4.03;;;;;;;16.61;67.99;101754.72;5034554;28;20039;-96
2023/06/08 00:10:52;;;;;;;5.57;3.90;;;;;;;16.59;67.79;101750.28;5045200;28;20032;-97
2023/06/08 00:13:17;;;;;;;7.57;4.50;;;;;;;16.55;68.39;101757.25;5052505;28;20033;-95
2023/06/08 00:15:43;;;;;;;5.82;3.97;;;;;;;16.51;68.15;101752.78;5050426;28;20030;-95
2023/06/08 00:18:12;;;;;;;6.60;4.05;;;;;;;16.40;68.33;101754.44;5048681;28;20026;-96
2023/06/08 00:20:46;;;;;;;6.00;4.07;;;;;;;16.38;68.20;101757.03;5056028;28;20019;-96
2023/06/08 00:23:15;;;;;;;7.70;4.68;;;;;;;16.36;70.00;101756.09;5055692;28;20017;-96
2023/06/08 00:25:43;;;;;;;6.93;4.22;;;;;;;16.32;67.57;101747.31;5053689;28;20009;-96
2023/06/08 00:28:20;;;;;;;6.53;4.10;;;;;;;16.36;69.54;101758.75;5053894;28;20096;-96
2023/06/08 00:30:49;;;;;;;5.75;4.28;;;;;;;16.34;66.65;101752.59;5041524;28;20030;-96
2023/06/08 00:33:24;;;;;;;5.93;4.00;;;;;;;16.32;68.80;101743.78;5029675;28;20048;-96
2023/06/08 00:35:58;;;;;;;7.25;4.75;;;;;;;16.26;67.17;101751.59;5036512;28;20060;-96
2023/06/08 00:38:34;;;;;;;9.15;4.80;;;;;;;16.22;68.26;101748.03;5042006;28;20017;-96
2023/06/08 00:41:12;;;;;;;5.80;4.38;;;;;;;16.12;70.98;101744.38;5041625;28;20057;-96
2023/06/08 00:44:11;;;;;;;6.53;4.28;;;;;;;16.17;70.22;101742.69;5040299;28;20061;-96
2023/06/08 00:46:40;;;;;;;6.32;4.20;;;;;;;16.13;70.19;101740.00;5041824;28;20044;-96
2023/06/08 00:49:16;;;;;;;6.65;4.63;;;;;;;16.12;70.84;101741.75;5036219;28;20511;-96
2023/06/08 00:51:56;;;;;;;7.47;4.50;;;;;;;16.10;70.67;101743.44;5045005;28;20032;-96
2023/06/08 00:54:29;;;;;;;6.32;4.40;;;;;;;16.05;70.63;101738.97;5035511;28;20104;-96
2023/06/08 00:57:12;;;;;;;7.22;4.32;;;;;;;16.01;71.09;101735.44;5037157;28;20432;-96
2023/06/08 00:59:40;;;;;;;7.13;4.55;;;;;;;16.05;71.57;101734.63;5039112;28;20044;-96
2023/06/08 01:02:33;;;;;;;7.32;4.50;;;;;;;16.08;70.35;101731.16;5051453;28;20037;-96
2023/06/08 01:05:11;;;;;;;7.25;4.55;;;;;;;16.08;71.07;101726.78;5049390;28;20370;-96
2023/06/08 01:07:48;;;;;;;7.60;4.70;;;;;;;15.99;70.76;101724.03;5047966;28;20025;-96
2023/06/08 01:10:55;;;;;;;6.28;4.25;;;;;;;15.98;70.88;101723.13;5044748;28;20029;-96
2023/06/08 01:14:18;;;;;;;8.25;4.20;;;;;;;15.92;70.86;101730.91;5047988;28;20036;-96
2023/06/08 01:17:23;;;;;;;5.43;4.30;;;;;;;15.89;71.60;101725.63;5035397;28;20047;-96
2023/06/08 01:20:08;;;;;;;7.57;4.68;;;;;;;15.88;70.33;101725.59;5055568;28;20021;-96
2023/06/08 01:22:46;;;;;;;7.57;4.72;;;;;;;15.77;72.49;101723.66;5048315;28;20041;-96
2023/06/08 01:25:17;;;;;;;7.82;4.57;;;;;;;15.72;72.57;101725.31;5051419;28;20466;-96
2023/06/08 01:27:57;;;;;;;7.88;4.40;;;;;;;15.67;71.91;101716.47;5060115;28;20028;-96
2023/06/08 01:30:48;;;;;;;6.88;4.60;;;;;;;15.70;72.85;101728.75;5053723;22;20123;-55
2023/06/08 01:33:23;;;;;;;7.03;4.50;;;;;;;15.70;73.08;101718.25;5049231;28;20091;-54
2023/06/08 01:35:59;;;;;;;7.20;4.20;;;;;;;15.68;72.57;101717.34;5050181;28;20040;-55
2023/06/08 01:38:57;;;;;;;6.57;4.57;;;;;;;15.56;72.65;101723.28;5051927;28;20035;-54
2023/06/08 01:41:26;;;;;;;7.60;4.88;;;;;;;15.55;73.22;101714.50;5045758;28;20091;-54
2023/06/08 01:43:51;;;;;;;7.93;4.97;;;;;;;15.58;73.34;101718.94;5054740;28;20025;-54
2023/06/08 01:46:20;;;;;;;7.03;4.88;;;;;;;15.54;71.95;101718.00;5055877;28;20400;-54
2023/06/08 01:48:48;;;;;;;7.32;4.75;;;;;;;15.56;73.29;101720.66;5055608;28;20037;-54
2023/06/08 01:51:14;;;;;;;6.70;4.88;;;;;;;15.54;73.28;101723.28;5046249;28;20511;-54
2023/06/08 01:53:40;;;;;;;6.07;4.68;;;;;;;15.52;73.53;101718.84;5045095;28;20032;-54
2023/06/08 01:56:06;;;;;;;8.93;5.15;;;;;;;15.46;73.55;101709.97;5046542;28;20032;-54
2023/06/08 01:58:31;;;;;;;7.70;4.55;;;;;;;15.42;71.67;101708.16;5044456;28;20025;-54
2023/06/08 02:00:56;;;;;;;7.40;4.50;;;;;;;15.38;72.99;101702.81;5046135;28;20027;-55
2023/06/08 02:03:21;;;;;;;6.13;4.85;;;;;;;15.32;72.84;101700.97;5045956;28;20037;-54
2023/06/08 02:05:47;;;;;;;6.30;4.78;;;;;;;15.27;74.08;101705.28;5046321;28;20607;-54
2023/06/08 02:08:12;;;;;;;7.25;5.05;;;;;;;15.20;74.58;101709.53;5046480;28;20264;-55
2023/06/08 02:10:37;;;;;;;7.20;5.20;;;;;;;15.15;74.61;101698.06;5047534;28;20110;-55
2023/06/08 02:13:03;;;;;;;7.07;4.97;;;;;;;15.12;74.71;101701.50;5046833;28;20636;-55
2023/06/08 02:15:28;;;;;;;7.93;5.50;;;;;;;15.09;74.87;101698.84;5047319;28;20059;-54
2023/06/08 02:17:53;;;;;;;7.75;5.00;;;;;;;15.03;73.82;101708.31;5047613;28;20029;-55
2023/06/08 02:20:18;;;;;;;9.18;5.28;;;;;;;14.93;75.59;101716.03;5047343;28;20033;-55
2023/06/08 02:22:45;;;;;;;8.98;5.43;;;;;;;14.95;75.54;101718.69;5047253;28;20072;-54
2023/06/08 02:25:11;;;;;;;8.10;5.60;;;;;;;14.90;75.67;101715.97;5046544;28;20075;-54
2023/06/08 02:27:36;;;;;;;7.00;4.93;;;;;;;14.84;74.52;101714.94;5048070;28;20033;-55
2023/06/08 02:30:04;;;;;;;7.13;5.43;;;;;;;14.83;76.05;101721.03;5047271;28;20048;-54
2023/06/08 02:32:33;;;;;;;8.20;5.50;;;;;;;14.84;76.50;101717.56;5047168;28;20029;-54
2023/06/08 02:35:03;;;;;;;7.97;5.70;;;;;;;14.81;75.92;101717.53;5045904;28;20619;-54
2023/06/08 02:37:28;;;;;;;7.93;4.95;;;;;;;14.81;76.16;101714.91;5044404;28;20032;-55
2023/06/08 02:39:53;;;;;;;7.32;5.30;;;;;;;14.80;76.25;101726.25;5046506;28;20029;-54
2023/06/08 02:42:19;;;;;;;7.07;5.50;;;;;;;14.76;76.73;101718.31;5046136;28;20025;-54
2023/06/08 02:44:45;;;;;;;7.35;5.13;;;;;;;14.70;76.48;101718.19;5044634;28;20108;-54
2023/06/08 02:47:11;;;;;;;7.93;5.03;;;;;;;14.65;76.31;101717.19;5044494;28;20623;-55
2023/06/08 02:49:36;;;;;;;9.07;6.05;;;;;;;14.59;76.70;101717.03;5046732;28;20029;-55
2023/06/08 02:52:02;;;;;;;7.15;5.15;;;;;;;14.54;76.72;101713.41;5044288;28;20021;-54
2023/06/08 02:54:27;;;;;;;9.10;6.10;;;;;;;14.52;77.25;101715.16;5044823;28;20024;-55
2023/06/08 02:56:52;;;;;;;9.15;5.68;;;;;;;14.44;77.57;101712.38;5045729;28;20020;-55
2023/06/08 02:59:18;;;;;;;7.07;5.50;;;;;;;14.43;77.43;101711.47;5045344;28;20028;-54
2023/06/08 03:01:52;;;;;;;6.57;4.97;;;;;;;14.40;77.32;101715.78;5046393;28;20466;-54
2023/06/08 03:04:18;;;;;;;6.95;5.35;;;;;;;14.38;76.49;101710.50;5043814;28;20029;-54
2023/06/08 03:06:43;;;;;;;8.02;5.65;;;;;;;14.31;77.57;101716.44;5044529;28;20029;-55
2023/06/08 03:09:09;;;;;;;6.50;5.22;;;;;;;14.29;77.17;101712.91;5045465;28;20036;-55
2023/06/08 03:11:34;;;;;;;7.70;5.70;;;;;;;14.25;78.19;101711.03;5045290;28;20052;-55
2023/06/08 03:14:00;;;;;;;7.10;5.72;;;;;;;14.18;78.45;101703.91;5045340;28;20563;-54
2023/06/08 03:16:26;;;;;;;7.28;5.32;;;;;;;14.11;78.74;101704.59;5059931;28;20025;-54
2023/06/08 03:18:52;;;;;;;6.80;5.55;;;;;;;14.08;78.93;101703.69;5045012;28;20094;-54
2023/06/08 03:21:18;;;;;;;7.97;5.60;;;;;;;14.11;78.54;101701.97;5044582;28;20028;-54
2023/06/08 03:23:46;;;;;;;8.32;5.47;;;;;;;14.12;78.57;101704.66;5044629;28;20039;-55
2023/06/08 03:26:11;;;;;;;6.90;5.43;;;;;;;14.08;79.00;101713.31;5042536;28;20559;-54
2023/06/08 03:28:37;;;;;;;7.15;5.25;;;;;;;14.04;78.75;101707.09;5044622;28;20108;-54
2023/06/08 03:31:02;;;;;;;7.63;5.50;;;;;;;14.00;79.30;101710.50;5044573;28;20044;-54
2023/06/08 03:33:27;;;;;;;7.90;5.50;;;;;;;14.00;79.56;101709.63;5045152;28;20024;-54
2023/06/08 03:35:53;;;;;;;7.70;5.30;;;;;;;13.99;79.51;101706.13;5044167;28;20435;-54
2023/06/08 03:38:18;;;;;;;6.22;4.82;;;;;;;13.99;79.61;101710.44;5043393;28;20067;-54
2023/06/08 03:40:43;;;;;;;7.43;5.40;;;;;;;13.97;79.41;101710.41;5042771;28;20036;-54
2023/06/08 03:43:09;;;;;;;6.60;5.60;;;;;;;13.91;79.72;101708.53;5042376;28;20027;-54
2023/06/08 03:45:34;;;;;;;7.20;5.97;;;;;;;13.93;79.75;101711.19;5043782;28;20290;-54
2023/06/08 03:48:00;;;;;;;8.85;5.80;;;;;;;13.92;80.00;101704.22;5044672;28;20016;-54
2023/06/08 03:50:25;;;;;;;9.50;5.75;;;;;;;13.90;79.62;101713.75;5045118;28;20025;-54
2023/06/08 03:52:50;;;;;;;7.55;5.45;;;;;;;13.90;79.28;101708.50;5043912;28;20137;-54
2023/06/08 03:55:16;;;;;;;8.38;5.35;;;;;;;13.93;80.25;101707.69;5044298;28;20633;-54
2023/06/08 03:57:42;;;;;;;7.43;5.63;;;;;;;13.89;80.60;101706.75;5041513;28;20039;-54
2023/06/08 04:00:10;;;;;;;7.95;5.45;;;;;;;13.88;79.00;101705.84;5041406;28;20403;-54
2023/06/08 04:02:35;;;;;;;7.63;5.80;;;;;;;13.91;80.52;101705.03;5044110;28;20039;-54
2023/06/08 04:05:01;;;;;;;9.68;5.93;;;;;;;13.91;80.14;101703.31;5044041;28;20021;-54
2023/06/08 04:07:27;;;;;;;8.02;5.90;;;;;;;13.86;77.56;101701.41;5044270;28;20025;-54
2023/06/08 04:09:53;;;;;;;8.85;5.78;;;;;;;13.88;80.50;101710.22;5044850;28;20051;-54
2023/06/08 04:12:18;;;;;;;8.27;5.60;;;;;;;13.87;77.11;101701.44;5045183;28;20504;-55
2023/06/08 04:14:44;;;;;;;10.02;5.90;;;;;;;13.90;80.50;101704.16;5045205;28;20493;-54
2023/06/08 04:17:09;;;;;;;8.15;5.65;;;;;;;13.94;80.59;101704.25;5044235;28;20491;-54
2023/06/08 04:19:34;;;;;;;8.05;5.57;;;;;;;13.94;80.15;101709.47;5044854;28;20048;-54
2023/06/08 04:22:00;;;;;;;7.22;5.50;;;;;;;13.92;79.57;101706.81;5044769;28;20033;-55
2023/06/08 04:24:28;;;;;;;9.18;6.03;;;;;;;13.83;78.70;101696.09;5045462;28;20119;-54
2023/06/08 04:26:53;;;;;;;8.65;5.90;;;;;;;13.79;80.83;101702.13;5044030;28;20026;-54
2023/06/08 04:29:19;;;;;;;8.18;5.65;;;;;;;13.78;80.52;101703.88;5043889;28;20049;-54
2023/06/08 04:31:44;;;;;;;7.40;5.85;;;;;;;13.77;81.14;101694.22;5045022;28;20021;-54
2023/06/08 04:34:10;;;;;;;8.30;5.95;;;;;;;13.71;81.19;101697.56;5044933;28;20041;-55
2023/06/08 04:36:35;;;;;;;9.00;6.00;;;;;;;13.66;80.64;101699.22;5044294;28;20598;-55
2023/06/08 04:39:01;;;;;;;7.50;5.88;;;;;;;13.65;81.39;101704.41;5043488;28;20503;-54
2023/06/08 04:41:29;;;;;;;8.40;5.70;;;;;;;13.65;81.79;101700.06;5042788;28;20036;-54
2023/06/08 04:43:55;;;;;;;8.90;6.30;;;;;;;13.60;81.95;101698.16;5043152;28;20064;-54
2023/06/08 04:46:25;;;;;;;12.55;6.43;;;;;;;13.50;81.53;101694.47;5042722;28;20123;-54
2023/06/08 04:48:51;;;;;;;8.77;5.95;;;;;;;13.43;82.59;101695.16;5043208;28;20599;-54
2023/06/08 04:51:17;;;;;;;8.00;6.32;;;;;;;13.40;82.55;101695.94;5042126;28;20120;-54
2023/06/08 04:53:42;;;;;;;8.55;5.65;;;;;;;13.39;82.68;101694.16;5044084;28;20511;-54
2023/06/08 04:56:07;;;;;;;7.72;5.80;;;;;;;13.42;82.65;101704.72;5043924;28;20115;-55
2023/06/08 04:58:33;;;;;;;8.00;6.03;;;;;;;13.45;79.70;101703.91;5040547;28;20032;-55
2023/06/08 05:00:59;;;;;;;8.85;6.05;;;;;;;13.45;81.69;101698.69;5043757;28;20112;-54
2023/06/08 05:03:25;;;;;;;8.07;5.80;;;;;;;13.49;82.35;101703.16;5043779;28;20033;-54
2023/06/08 05:05:51;;;;;;;8.32;6.15;;;;;;;13.44;82.04;101700.41;5043710;28;20071;-55
2023/06/08 05:08:17;;;;;;;8.25;6.10;;;;;;;13.39;82.90;101702.88;5041591;28;20112;-55
2023/06/08 05:10:42;;;;;;;9.73;6.68;;;;;;;13.44;82.37;101702.13;5040492;28;20507;-54
2023/06/08 05:13:07;;;;;;;9.98;6.72;;;;;;;13.48;82.38;101690.91;5042839;28;20025;-54
2023/06/08 05:15:33;;;;;;;8.88;6.20;;;;;;;13.54;82.59;101696.28;5043794;28;20028;-54
2023/06/08 05:17:59;;;;;;;7.10;5.68;;;;;;;13.57;81.58;101699.00;5045636;28;20024;-54
2023/06/08 05:28:30;;;;;;;8.45;6.07;;;;;;;13.62;80.19;101692.13;4880436;26;20541;-96
2023/06/08 05:31:11;;;;;;;8.57;6.70;;;;;;;13.68;81.45;101691.41;5035501;28;20033;-95
2023/06/08 05:34:09;;;;;;;7.13;5.72;;;;;;;13.74;80.13;101691.53;5040649;28;20026;-96
2023/06/08 05:37:16;;;;;;;9.35;6.32;;;;;;;13.77;79.86;101688.13;5030218;28;20483;-96
2023/06/08 05:42:35;;;;;;;9.30;6.40;;;;;;;13.81;78.14;101687.34;5040109;28;20086;-96
2023/06/08 05:45:07;;;;;;;8.23;6.57;;;;;;;13.87;79.95;101687.47;5037363;28;21375;-96
2023/06/08 05:48:16;;;;;;;7.65;6.60;;;;;;;13.97;80.82;101684.22;5071533;28;20071;-96
2023/06/08 05:51:10;;;;;;;;;;;;;;;;;;;;;
2023/06/08 05:53:53;;;;;;;10.05;6.60;;;;;;;14.06;81.12;101679.22;5073240;28;20044;-96
2023/06/08 05:56:36;;;;;;;;;;;;;;;;;;;;;
2023/06/08 06:01:53;;;;;;;7.47;6.50;;;;;;;14.24;80.37;101680.47;5026166;28;20057;-58
2023/06/08 06:04:18;;;;;;;8.52;6.68;;;;;;;14.30;80.75;101683.22;5027510;28;20091;-58
2023/06/08 06:06:44;;;;;;;9.45;6.70;;;;;;;14.33;80.50;101678.03;5009672;28;20071;-58
2023/06/08 06:09:11;;;;;;;9.10;6.72;;;;;;;14.39;80.44;101680.78;5027567;28;20175;-59
2023/06/08 06:11:36;;;;;;;10.55;7.18;;;;;;;14.40;80.39;101681.69;5026775;28;20075;-58
2023/06/08 06:14:01;;;;;;;9.23;7.13;;;;;;;14.51;79.66;101674.94;5027904;28;20104;-58
2023/06/08 06:16:27;;;;;;;9.25;6.63;;;;;;;14.58;78.81;101675.91;5027873;28;20037;-58
2023/06/08 06:18:52;;;;;;;8.73;7.38;;;;;;;14.68;79.50;101685.78;5027102;28;20511;-58
2023/06/08 06:21:17;;;;;;;9.90;6.82;;;;;;;14.76;79.75;101684.19;5027788;28;20151;-58
2023/06/08 06:23:44;;;;;;;9.95;6.75;;;;;;;14.87;79.77;101671.28;5027998;28;20476;-58
2023/06/08 06:26:10;;;;;;;9.20;6.57;;;;;;;14.97;79.02;101674.97;5027886;28;20526;-54
2023/06/08 06:28:35;;;;;;;9.07;6.65;;;;;;;15.07;79.35;101678.66;5026616;28;20069;-55
2023/06/08 06:31:00;;;;;;;9.07;7.20;;;;;;;15.16;79.50;101680.56;5027363;28;20041;-55
2023/06/08 06:33:26;;;;;;;8.45;6.97;;;;;;;15.22;78.43;101681.56;5027943;28;20022;-55
2023/06/08 06:35:52;;;;;;;7.95;6.80;;;;;;;15.32;77.35;101679.97;5027379;28;20276;-54
2023/06/08 06:38:17;;;;;;;23.08;21.05;;;;;;;15.43;77.68;101680.16;5025314;28;20472;-55
2023/06/08 06:40:43;;;;;;;9.93;7.15;;;;;;;15.57;78.71;101677.75;5026981;28;20076;-55
2023/06/08 06:43:08;;;;;;;9.02;6.47;;;;;;;15.61;76.56;101676.94;5007191;28;20026;-55
2023/06/08 06:45:33;;;;;;;10.38;7.32;;;;;;;15.70;77.08;101673.59;5000435;28;20065;-54
2023/06/08 06:48:00;;;;;;;9.45;6.95;;;;;;;15.71;77.19;101676.22;5000133;28;20044;-55
2023/06/08 06:50:25;;;;;;;10.00;7.65;;;;;;;15.80;76.89;101675.53;4999078;28;20036;-55
2023/06/08 06:52:51;;;;;;;10.73;7.32;;;;;;;15.94;77.24;101686.25;5000416;28;20026;-55
2023/06/08 06:55:16;;;;;;;8.35;7.07;;;;;;;16.02;76.03;101682.00;5001727;28;20480;-55
2023/06/08 06:57:41;;;;;;;9.55;7.30;;;;;;;16.14;77.39;101690.06;5000835;28;20030;-55
2023/06/08 07:00:07;;;;;;;9.38;7.30;;;;;;;16.23;76.65;101686.66;5001170;28;20050;-55
2023/06/08 07:02:33;;;;;;;8.80;7.43;;;;;;;16.45;77.52;101690.50;4999256;28;20107;-55
2023/06/08 07:16:50;;;;;;;;;;;;;;;;;;;;;
2023/06/08 07:20:08;;;;;;;9.45;7.72;;;;;;;16.57;75.59;101692.38;5014062;28;20166;-96
2023/06/08 07:22:51;;;;;;;9.52;7.43;;;;;;;16.80;75.69;101695.28;5042550;28;20033;-96
2023/06/08 07:25:41;;;;;;;9.10;7.60;;;;;;;16.88;75.07;101690.16;5033776;28;20028;-96
2023/06/08 07:28:53;;;;;;;;;;;;;;;;;;;;;
2023/06/08 07:36:29;;;;;;;10.55;7.85;;;;;;;17.36;73.17;101677.44;5257530;22;20119;-61
2023/06/08 07:38:56;;;;;;;8.02;6.90;;;;;;;17.51;75.23;101674.97;5005418;28;20037;-60
2023/06/08 07:41:21;;;;;;;8.43;7.53;;;;;;;17.75;74.53;101685.69;5003945;28;20038;-60
2023/06/08 07:43:46;;;;;;;7.70;6.15;;;;;;;17.93;73.58;101680.56;5005462;28;20026;-61
2023/06/08 07:46:13;;;;;;;8.77;7.63;;;;;;;18.09;71.45;101681.56;5004799;28;20060;-61
2023/06/08 07:48:38;;;;;;;10.35;7.68;;;;;;;18.23;70.94;101674.59;5005549;28;20119;-61
2023/06/08 07:51:03;;;;;;;8.57;7.68;;;;;;;18.32;69.38;101672.84;5005706;28;20653;-61
2023/06/08 07:53:36;;;;;;;8.23;7.25;;;;;;;18.52;72.48;101676.47;5004241;28;20466;-61
2023/06/08 07:56:02;;;;;;;9.82;7.45;;;;;;;18.67;70.69;101680.03;5004849;28;20036;-61
2023/06/08 07:58:28;;;;;;;8.77;7.20;;;;;;;18.73;69.83;101674.78;5005768;28;20029;-61
2023/06/08 08:00:53;;;;;;;8.43;7.60;;;;;;;18.88;71.44;101672.22;5002775;28;20036;-61
2023/06/08 08:03:18;;;;;;;9.77;7.88;;;;;;;18.99;67.71;101674.91;5005877;28;20034;-61
2023/06/08 08:05:43;;;;;;;9.35;7.15;;;;;;;19.00;67.96;101675.75;5005771;28;20646;-60
2023/06/08 08:08:09;;;;;;;8.52;7.65;;;;;;;19.08;69.71;101671.38;5004757;28;20038;-61
2023/06/08 08:10:34;;;;;;;8.32;7.38;;;;;;;19.29;71.22;101663.47;5003681;28;20087;-61
2023/06/08 08:13:00;;;;;;;10.50;7.80;;;;;;;19.50;67.87;101669.66;5004092;28;20080;-61
2023/06/08 08:15:26;;;;;;;9.02;7.57;;;;;;;19.54;68.62;101673.19;5004540;28;20034;-61
2023/06/08 08:17:51;;;;;;;9.57;7.00;;;;;;;19.63;68.36;101666.09;5002867;28;20025;-61
2023/06/08 08:20:17;;;;;;;8.48;7.20;;;;;;;19.68;68.59;101667.88;5004797;28;20029;-61
2023/06/08 08:22:42;;;;;;;8.63;7.60;;;;;;;19.78;67.82;101667.91;5005394;28;20038;-61
2023/06/08 08:25:08;;;;;;;10.07;7.38;;;;;;;19.75;65.54;101669.63;5005213;28;20550;-61
2023/06/08 08:27:33;;;;;;;8.70;7.47;;;;;;;19.86;66.51;101674.94;5004219;28;20029;-61
2023/06/08 08:29:58;;;;;;;8.63;7.50;;;;;;;20.12;70.13;101673.13;5005589;28;20029;-57
2023/06/08 08:32:23;;;;;;;8.00;7.20;;;;;;;20.14;65.78;101667.81;5004629;28;20495;-57
2023/06/08 08:34:50;;;;;;;9.65;7.65;;;;;;;20.08;63.09;101662.53;5004340;28;20026;-57
2023/06/08 08:37:17;;;;;;;8.82;7.30;;;;;;;19.96;63.59;101663.47;5004582;28;20068;-57
2023/06/08 08:39:42;;;;;;;8.52;7.57;;;;;;;20.08;65.43;101666.06;5003610;28;20483;-57
2023/06/08 08:42:11;;;;;;;8.98;7.15;;;;;;;20.46;66.63;101666.81;5005542;28;20489;-57
2023/06/08 08:44:36;;;;;;;8.70;7.75;;;;;;;20.69;63.25;101661.44;5004044;28;20028;-57
2023/06/08 08:47:04;;;;;;;8.75;7.72;;;;;;;20.84;65.55;101657.81;5004937;28;20029;-57
2023/06/08 08:49:36;;;;;;;9.05;7.10;;;;;;;21.02;64.49;101655.06;5005166;28;20036;-57
2023/06/08 08:52:02;;;;;;;8.13;7.32;;;;;;;21.26;64.96;101663.75;5008524;28;20030;-57
2023/06/08 08:54:33;;;;;;;9.55;7.63;;;;;;;21.49;63.72;101660.00;5007654;28;20048;-57
2023/06/08 08:56:58;;;;;;;11.93;7.78;;;;;;;21.49;63.17;101654.69;5005674;28;20030;-57
2023/06/08 08:59:27;;;;;;;9.43;7.40;;;;;;;21.61;60.59;101654.63;5005994;28;20473;-57
2023/06/08 09:01:52;;;;;;;7.72;7.00;;;;;;;21.59;58.09;101653.75;5007094;28;20113;-58
2023/06/08 09:04:18;;;;;;;9.30;7.13;;;;;;;21.59;60.19;101655.53;5006057;28;20033;-57
2023/06/08 09:06:50;;;;;;;9.90;6.65;;;;;;;21.66;61.22;101655.44;5007904;28;20438;-57
2023/06/08 09:09:16;;;;;;;8.43;6.93;;;;;;;21.84;61.14;101648.19;5007496;28;20033;-57
2023/06/08 09:14:10;;;;;;;7.22;6.20;;;;;;;22.08;61.34;101649.72;5182863;22;20057;-62
2023/06/08 09:19:11;;;;;;;8.23;6.85;;;;;;;22.28;59.50;101648.63;4973967;26;20521;-61
2023/06/08 09:21:37;;;;;;;8.43;7.07;;;;;;;22.52;59.70;101655.41;5237900;22;20921;-61
2023/06/08 09:24:03;;;;;;;7.30;6.15;;;;;;;22.74;59.11;101638.28;5343858;22;20058;-61
2023/06/08 09:29:03;;;;;;;8.00;6.30;;;;;;;22.97;57.48;101629.09;5215979;22;20509;-58
2023/06/08 09:31:30;;;;;;;7.07;5.53;;;;;;;23.03;57.67;101628.97;5113277;22;20060;-61
2023/06/08 09:34:07;;;;;;;6.80;5.60;;;;;;;23.09;57.20;101633.31;5185892;22;20046;-61
2023/06/08 09:36:37;;;;;;;6.75;6.05;;;;;;;23.24;58.60;101637.53;5032905;22;20043;-61
2023/06/08 09:39:07;;;;;;;5.97;5.38;;;;;;;23.39;58.92;101629.31;5251838;22;20124;-62
2023/06/08 09:41:35;;;;;;;7.50;6.57;;;;;;;23.49;54.79;101629.13;4988004;28;20063;-63
2023/06/08 09:44:00;;;;;;;6.53;5.82;;;;;;;23.60;54.71;101636.00;5161660;22;20551;-63
2023/06/08 09:54:01;;;;;;;7.85;6.13;;;;;;;23.61;55.12;101624.47;5197791;22;20057;-64
2023/06/08 09:56:27;;;;;;;6.07;5.47;;;;;;;23.78;55.09;101628.59;5208954;22;20085;-64
2023/06/08 09:58:56;;;;;;;5.82;4.93;;;;;;;24.02;55.03;101623.75;5169740;22;20062;-64
2023/06/08 10:01:45;;;;;;;7.35;5.32;;;;;;;24.39;52.69;101613.22;5110158;22;20054;-65
2023/06/08 10:06:44;;;;;;;7.25;5.55;;;;;;;24.51;54.61;101617.38;5151428;22;20041;-64
2023/06/08 10:09:12;;;;;;;6.53;4.93;;;;;;;24.90;55.45;101605.88;5219310;22;20057;-64
2023/06/08 10:11:39;;;;;;;5.63;5.03;;;;;;;24.89;52.72;101612.09;5104344;22;21528;-65
2023/06/08 10:14:05;;;;;;;5.50;5.00;;;;;;;25.13;54.71;101613.31;5019636;22;21444;-65
2023/06/08 10:16:31;;;;;;;7.85;5.30;;;;;;;25.15;50.36;101609.66;4985283;28;20632;-65
2023/06/08 10:18:57;;;;;;;5.40;4.10;;;;;;;25.08;52.41;101607.19;5167190;22;20072;-65
2023/06/08 10:21:23;;;;;;;5.95;4.20;;;;;;;25.21;50.99;101607.78;5107704;22;20052;-64
2023/06/08 10:23:49;;;;;;;4.55;4.15;;;;;;;25.02;48.85;101600.22;5073223;22;20484;-65
2023/06/08 10:26:15;;;;;;;5.70;3.97;;;;;;;25.21;51.06;101599.78;5404965;22;20057;-59
2023/06/08 10:36:21;;;;;;;6.65;5.25;;;;;;;25.55;48.59;101598.91;5000449;28;20053;-65
2023/06/08 10:41:38;;;;;;;5.90;4.45;;;;;;;25.42;51.12;101606.34;5153118;22;20082;-64
2023/06/08 10:44:04;;;;;;;5.60;4.60;;;;;;;25.39;51.81;101607.34;5024471;28;20497;-65
2023/06/08 10:46:42;;;;;;;5.55;4.40;;;;;;;25.40;51.43;101598.38;5022726;28;20036;-64
2023/06/08 10:56:46;;;;;;;5.63;4.97;;;;;;;25.89;48.13;101593.50;5031123;22;20069;-65
2023/06/08 10:59:11;;;;;;;6.78;4.50;;;;;;;25.87;49.62;101587.34;5125835;22;20458;-65
2023/06/08 11:01:37;;;;;;;6.35;4.75;;;;;;;25.86;47.54;101583.78;5224787;22;20024;-64
2023/06/08 11:04:05;;;;;;;6.75;4.90;;;;;;;25.95;50.84;101589.78;5277986;22;20207;-65
2023/06/08 11:06:33;;;;;;;6.53;4.77;;;;;;;26.07;48.02;101577.91;5416780;22;20072;-64
2023/06/08 11:08:59;;;;;;;6.27;4.70;;;;;;;26.05;48.78;101577.06;5216040;22;20064;-65
2023/06/08 11:11:25;;;;;;;6.88;4.70;;;;;;;26.18;48.20;101575.78;5175728;22;20182;-64
2023/06/08 11:13:52;;;;;;;4.72;4.18;;;;;;;26.06;49.44;101581.50;5295102;22;20096;-65
2023/06/08 11:16:21;;;;;;;6.85;4.07;;;;;;;26.01;49.05;101573.59;5312302;22;20117;-64
2023/06/08 11:18:46;;;;;;;5.90;4.93;;;;;;;25.99;45.78;101562.94;5019695;28;20135;-65
2023/06/08 11:26:06;;;;;;;5.65;4.22;;;;;;;26.05;44.83;101564.59;5465836;22;20054;-64
2023/06/08 11:28:31;;;;;;;5.13;4.63;;;;;;;25.75;45.95;101553.88;5163897;22;20042;-65
2023/06/08 11:30:59;;;;;;;6.40;4.57;;;;;;;26.00;49.07;101546.03;5139568;22;20068;-66
2023/06/08 11:33:25;;;;;;;5.47;4.97;;;;;;;26.07;48.38;101554.75;5373212;22;20088;-65
2023/06/08 11:38:15;;;;;;;6.78;4.68;;;;;;;26.98;48.71;101541.19;5327626;22;20050;-65
2023/06/08 11:40:41;;;;;;;6.57;4.55;;;;;;;26.94;44.03;101536.88;5288288;22;20088;-64
2023/06/08 11:43:09;;;;;;;4.65;4.07;;;;;;;26.93;44.96;101531.56;5146804;22;20044;-65
2023/06/08 11:45:35;;;;;;;5.60;4.22;;;;;;;27.10;46.36;101536.31;5228435;22;20032;-65
2023/06/08 11:48:02;;;;;;;4.83;4.00;;;;;;;26.94;41.39;101538.66;5002518;28;20128;-66
2023/06/08 11:50:27;;;;;;;4.65;3.90;;;;;;;26.79;42.33;101530.22;5003671;28;20319;-65
2023/06/08 11:52:54;;;;;;;5.68;3.50;;;;;;;26.95;48.41;101529.72;5004515;28;20030;-65
2023/06/08 11:55:22;;;;;;;5.07;4.20;;;;;;;26.94;43.09;101527.94;5114412;22;20912;-66
2023/06/08 11:57:56;;;;;;;5.17;3.83;;;;;;;27.08;45.11;101531.03;5207247;22;20133;-62
2023/06/08 12:00:33;;;;;;;4.97;4.00;;;;;;;27.31;46.17;101527.53;5212700;22;20089;-62
2023/06/08 12:03:00;;;;;;;6.60;5.15;;;;;;;27.67;44.17;101524.47;5140356;22;20056;-62
2023/06/08 12:08:01;;;;;;;7.85;5.20;;;;;;;27.57;45.18;101518.59;5211683;22;20066;-62
2023/06/08 12:10:37;;;;;;;7.78;5.25;;;;;;;27.56;45.51;101511.50;5215189;22;20061;-62
2023/06/08 12:13:06;;;;;;;6.72;5.05;;;;;;;27.69;43.53;101517.28;5187470;22;20671;-62
2023/06/08 12:15:43;;;;;;;7.13;4.72;;;;;;;28.03;43.99;101507.13;5168097;22;20422;-64
2023/06/08 12:18:17;;;;;;;5.53;3.90;;;;;;;28.37;41.80;101503.94;5146703;22;20144;-62
2023/06/08 12:20:44;;;;;;;6.20;4.47;;;;;;;28.32;41.65;101502.41;5138847;22;20085;-62
2023/06/08 12:23:12;;;;;;;4.78;4.25;;;;;;;28.10;43.18;101500.59;5350887;22;21276;-62
2023/06/08 12:25:37;;;;;;;5.85;4.78;;;;;;;28.08;44.05;101486.34;5217548;22;20509;-62
2023/06/08 12:28:03;;;;;;;5.45;4.47;;;;;;;28.27;43.83;101487.38;5009329;28;20081;-62
2023/06/08 12:32:58;;;;;;;5.45;3.95;;;;;;;28.34;40.96;101476.41;5152997;22;20111;-62
2023/06/08 12:35:24;;;;;;;5.82;3.83;;;;;;;28.71;42.32;101478.44;5156182;22;20553;-62
2023/06/08 12:37:51;;;;;;;4.22;3.25;;;;;;;28.98;42.80;101470.13;5343423;22;20560;-62
2023/06/08 12:40:18;;;;;;;5.40;3.17;;;;;;;28.81;41.68;101478.94;5373095;22;20136;-61
2023/06/08 12:42:49;;;;;;;6.20;3.70;;;;;;;28.93;42.31;101472.16;5007699;28;20042;-63
2023/06/08 12:45:16;;;;;;;4.47;3.72;;;;;;;29.13;41.92;101471.28;5279001;22;20122;-62
2023/06/08 12:50:14;;;;;;;4.22;3.80;;;;;;;29.45;40.50;101464.47;5205872;22;20097;-62
2023/06/08 12:52:41;;;;;;;5.95;3.55;;;;;;;29.39;38.49;101467.44;4990254;28;20112;-62
2023/06/08 12:55:06;;;;;;;5.82;3.78;;;;;;;29.40;42.35;101468.31;5321617;22;20039;-62
2023/06/08 12:57:33;;;;;;;5.32;4.03;;;;;;;29.47;40.67;101453.66;5216101;22;20049;-62
2023/06/08 12:59:58;;;;;;;4.93;4.28;;;;;;;29.56;41.29;101447.88;5011300;28;20112;-62